createdAt,value
2023-03-02T00:00:40.502Z,21.43
2023-03-02T00:03:49.482Z,25.08
2023-03-02T00:07:01.386Z,20.50
2023-03-02T00:10:17.372Z,21.67
2023-03-02T00:13:19.234Z,21.65
2023-03-02T00:16:34.794Z,17.77
2023-03-02T00:19:43.430Z,22.30
2023-03-02T00:22:52.063Z,18.23
2023-03-02T00:26:00.417Z,20.12
2023-03-02T00:29:08.985Z,20.75
2023-03-02T00:32:17.413Z,23.67
2023-03-02T00:35:26.036Z,27.08
2023-03-02T00:38:34.362Z,28.73
2023-03-02T00:41:43.055Z,28.92
2023-03-02T00:44:51.415Z,37.25
2023-03-02T00:48:06.366Z,30.97
2023-03-02T00:51:09.334Z,35.83
2023-03-02T00:54:24.385Z,32.90
2023-03-02T00:57:32.964Z,30.77
2023-03-02T01:00:47.422Z,31.05
2023-03-02T01:03:50.069Z,37.40
2023-03-02T01:07:06.393Z,31.45
2023-03-02T01:10:16.431Z,33.72
2023-03-02T01:13:31.382Z,34.65
2023-03-02T01:16:34.193Z,34.45
2023-03-02T01:19:50.425Z,35.90
2023-03-02T01:22:58.372Z,31.45
2023-03-02T01:26:14.404Z,31.95
2023-03-02T01:29:23.440Z,35.47
2023-03-02T01:32:32.194Z,29.83
2023-03-02T01:35:40.510Z,26.90
2023-03-02T01:38:49.417Z,25.37
2023-03-02T01:42:02.447Z,29.00
2023-03-02T01:45:37.446Z,32.33
2023-03-02T01:48:54.412Z,31.98
2023-03-02T01:52:09.440Z,28.00
2023-03-02T01:55:13.937Z,28.20
2023-03-02T01:58:29.441Z,27.75
2023-03-02T02:01:41.410Z,32.08
2023-03-02T02:04:56.479Z,31.55
2023-03-02T02:08:18.467Z,25.67
2023-03-02T02:11:27.372Z,30.60
2023-03-02T02:14:35.443Z,29.70
2023-03-02T02:17:50.389Z,32.05
2023-03-02T02:20:59.568Z,28.42
2023-03-02T02:24:20.410Z,28.23
2023-03-02T02:27:29.835Z,28.58
2023-03-02T02:30:44.425Z,34.15
2023-03-02T02:34:04.462Z,26.75
2023-03-02T02:37:32.490Z,25.42
2023-03-02T02:40:55.459Z,30.13
2023-03-02T02:44:05.053Z,26.65
2023-03-02T02:47:25.419Z,25.25
2023-03-02T02:50:42.458Z,29.77
2023-03-02T02:54:00.463Z,22.62
2023-03-02T02:57:11.078Z,30.77
2023-03-02T03:00:27.429Z,22.58
2023-03-02T03:03:45.460Z,23.42
2023-03-02T03:06:58.500Z,21.85
2023-03-02T03:10:29.471Z,20.67
2023-03-02T03:13:31.330Z,22.10
2023-03-02T03:16:49.491Z,21.40
2023-03-02T03:19:51.590Z,23.42
2023-03-02T03:23:07.470Z,23.52
2023-03-02T03:26:15.428Z,24.48
2023-03-02T03:29:26.454Z,24.37
2023-03-02T03:32:42.456Z,23.52
2023-03-02T03:35:44.353Z,23.27
2023-03-02T03:38:59.440Z,27.05
2023-03-02T03:42:08.470Z,22.85
2023-03-02T03:45:17.113Z,23.30
2023-03-02T03:48:25.438Z,23.62
2023-03-02T03:51:40.416Z,23.45
2023-03-02T03:54:42.322Z,22.42
2023-03-02T03:57:57.474Z,19.15
2023-03-02T04:01:07.386Z,21.70
2023-03-02T04:04:23.464Z,21.95
2023-03-02T04:07:46.452Z,20.65
2023-03-02T04:10:48.418Z,24.65
2023-03-02T04:14:03.525Z,21.80
2023-03-02T04:17:18.462Z,23.63
2023-03-02T04:20:22.645Z,25.40
2023-03-02T04:23:38.465Z,24.73
2023-03-02T04:26:48.341Z,21.73
2023-03-02T04:30:03.485Z,19.15
2023-03-02T04:33:23.460Z,20.63
2023-03-02T04:36:32.971Z,18.73
2023-03-02T04:39:47.585Z,20.67
2023-03-02T04:42:56.103Z,18.92
2023-03-02T04:46:04.537Z,21.17
2023-03-02T04:49:21.446Z,18.83
2023-03-02T04:52:24.187Z,21.25
2023-03-02T04:55:38.483Z,25.33
2023-03-02T04:58:40.919Z,23.77
2023-03-02T05:01:55.558Z,23.52
2023-03-02T05:05:03.518Z,20.37
2023-03-02T05:08:18.801Z,17.45
2023-03-02T05:11:27.481Z,16.20
2023-03-02T05:14:48.600Z,20.17
2023-03-02T05:17:56.509Z,17.10
2023-03-02T05:21:11.516Z,18.57
2023-03-02T05:24:20.170Z,20.52
2023-03-02T05:27:28.501Z,21.37
2023-03-02T05:30:38.124Z,20.70
2023-03-02T05:33:53.513Z,19.08
2023-03-02T05:36:55.628Z,19.53
2023-03-02T05:40:11.495Z,18.00
2023-03-02T05:43:27.532Z,19.77
2023-03-02T05:46:36.418Z,17.85
2023-03-02T05:49:51.558Z,20.45
2023-03-02T05:52:53.574Z,19.47
2023-03-02T05:56:08.491Z,18.50
2023-03-02T05:59:16.518Z,18.50
2023-03-02T06:02:31.533Z,18.95
2023-03-02T06:05:33.336Z,16.83
2023-03-02T06:08:49.536Z,18.97
2023-03-02T06:11:58.601Z,21.48
2023-03-02T06:15:14.654Z,15.65
2023-03-02T06:18:23.507Z,18.80
2023-03-02T06:21:32.672Z,15.13
2023-03-02T06:24:40.508Z,18.80
2023-03-02T06:27:49.957Z,17.90
2023-03-02T06:31:05.554Z,21.50
2023-03-02T06:34:15.012Z,17.02
2023-03-02T06:37:23.547Z,21.23
2023-03-02T06:40:38.547Z,20.13
2023-03-02T06:43:46.771Z,19.65
2023-03-02T06:46:55.116Z,22.92
2023-03-02T06:50:03.557Z,15.35
2023-03-02T06:53:14.616Z,17.80
2023-03-02T06:56:22.546Z,16.87
2023-03-02T06:59:37.549Z,21.87
2023-03-02T07:02:39.713Z,20.62
2023-03-02T07:05:55.519Z,19.35
2023-03-02T07:09:17.567Z,19.05
2023-03-02T07:12:19.547Z,16.37
2023-03-02T07:15:34.587Z,18.45
2023-03-02T07:18:46.616Z,22.70
2023-03-02T07:21:55.267Z,18.95
2023-03-02T07:25:03.579Z,17.55
2023-03-02T07:28:37.570Z,19.43
2023-03-02T07:31:46.240Z,16.58
2023-03-02T07:34:54.547Z,15.95
2023-03-02T07:38:03.787Z,20.25
2023-03-02T07:41:18.561Z,14.82
2023-03-02T07:44:34.549Z,18.70
2023-03-02T07:47:40.913Z,13.45
2023-03-02T07:50:59.559Z,20.33
2023-03-02T07:54:01.514Z,17.20
2023-03-02T07:57:16.591Z,19.92
2023-03-02T08:00:19.132Z,16.83
2023-03-02T08:03:33.646Z,17.90
2023-03-02T08:06:42.745Z,14.05
2023-03-02T08:09:51.233Z,13.57
2023-03-02T08:12:59.636Z,14.73
2023-03-02T08:16:09.517Z,16.80
2023-03-02T08:19:17.586Z,13.10
2023-03-02T08:22:32.630Z,16.35
2023-03-02T08:25:40.571Z,12.63
2023-03-02T08:28:55.578Z,13.82
2023-03-02T08:32:03.760Z,16.07
2023-03-02T08:35:24.602Z,13.77
2023-03-02T08:38:33.591Z,15.93
2023-03-02T08:41:42.324Z,17.98
2023-03-02T08:44:51.612Z,15.45
2023-03-02T08:48:00.228Z,11.07
2023-03-02T08:51:19.633Z,16.02
2023-03-02T08:54:34.722Z,13.30
2023-03-02T08:57:36.641Z,14.40
2023-03-02T09:00:52.690Z,14.60
2023-03-02T09:04:02.201Z,18.23
2023-03-02T09:07:10.597Z,18.48
2023-03-02T09:10:25.917Z,12.93
2023-03-02T09:13:42.695Z,15.30
2023-03-02T09:16:44.569Z,12.93
2023-03-02T09:19:59.618Z,14.53
2023-03-02T09:23:27.601Z,14.45
2023-03-02T09:26:36.336Z,12.52
2023-03-02T09:29:44.584Z,14.10
2023-03-02T09:32:53.525Z,13.20
2023-03-02T09:36:02.623Z,15.57
2023-03-02T09:39:17.634Z,16.77
2023-03-02T09:42:43.968Z,15.55
2023-03-02T09:46:14.630Z,14.27
2023-03-02T09:49:46.440Z,13.60
2023-03-02T09:53:31.588Z,13.00
2023-03-02T09:56:37.577Z,11.77
2023-03-02T10:00:16.482Z,18.42
2023-03-02T10:03:32.698Z,19.20
2023-03-02T10:06:54.745Z,16.92
2023-03-02T10:10:32.706Z,12.97
2023-03-02T10:13:48.715Z,11.73
2023-03-02T10:17:26.634Z,15.45
2023-03-02T10:20:44.670Z,18.75
2023-03-02T10:24:03.927Z,15.85
2023-03-02T10:27:25.737Z,11.50
2023-03-02T10:30:37.544Z,13.52
2023-03-02T10:33:54.026Z,11.65
2023-03-02T10:37:02.666Z,11.65
2023-03-02T10:40:47.610Z,14.00
2023-03-02T10:44:00.630Z,11.57
2023-03-02T10:47:33.642Z,11.32
2023-03-02T10:50:37.720Z,13.60
2023-03-02T10:54:17.918Z,15.15
2023-03-02T10:57:34.395Z,15.70
2023-03-02T11:00:48.642Z,13.13
2023-03-02T11:04:07.710Z,13.32
2023-03-02T11:07:16.831Z,14.55
2023-03-02T11:10:42.718Z,12.10
2023-03-02T11:13:51.758Z,12.00
2023-03-02T11:17:03.101Z,12.57
2023-03-02T11:20:21.716Z,13.77
2023-03-02T11:23:42.383Z,11.57
2023-03-02T11:26:56.656Z,14.82
2023-03-02T11:30:16.947Z,11.12
2023-03-02T11:33:40.663Z,12.80
2023-03-02T11:37:06.378Z,15.38
2023-03-02T11:40:50.733Z,12.68
2023-03-02T11:44:00.657Z,14.48
2023-03-02T11:47:12.462Z,11.45
2023-03-02T11:50:22.738Z,12.80
2023-03-02T11:53:49.688Z,11.52
2023-03-02T11:56:51.558Z,11.57
2023-03-02T12:00:08.681Z,9.63
2023-03-02T12:03:23.432Z,13.25
2023-03-02T12:06:47.753Z,10.33
2023-03-02T12:10:28.725Z,11.52
2023-03-02T12:13:47.222Z,10.52
2023-03-02T12:16:49.090Z,14.23
2023-03-02T12:20:31.755Z,12.73
2023-03-02T12:24:04.677Z,8.90
2023-03-02T12:27:30.813Z,16.15
2023-03-02T12:30:39.710Z,8.48
2023-03-02T12:33:54.820Z,10.32
2023-03-02T12:37:22.514Z,10.18
2023-03-02T12:40:47.750Z,9.27
2023-03-02T12:44:22.916Z,9.82
2023-03-02T12:47:38.987Z,10.98
2023-03-02T12:50:50.165Z,10.05
2023-03-02T12:54:07.278Z,18.12
2023-03-02T12:57:25.922Z,9.63
2023-03-02T13:00:42.759Z,9.00
2023-03-02T13:03:52.842Z,9.85
2023-03-02T13:07:01.807Z,11.90
2023-03-02T13:10:36.752Z,11.27
2023-03-02T13:13:41.973Z,11.27
2023-03-02T13:17:03.796Z,10.18
2023-03-02T13:20:12.861Z,12.95
2023-03-02T13:23:21.700Z,13.10
2023-03-02T13:26:36.838Z,13.68
2023-03-02T13:29:52.784Z,10.73
2023-03-02T13:33:07.725Z,10.18
2023-03-02T13:36:20.208Z,13.20
2023-03-02T13:39:34.862Z,10.77
2023-03-02T13:42:43.358Z,11.15
2023-03-02T13:46:02.791Z,15.03
2023-03-02T13:49:18.791Z,10.55
2023-03-02T13:52:30.215Z,11.45
2023-03-02T13:55:48.750Z,10.07
2023-03-02T13:58:50.910Z,10.88
2023-03-02T14:02:08.211Z,12.50
2023-03-02T14:09:28.744Z,11.07
2023-03-02T14:12:38.122Z,12.95
2023-03-02T14:15:55.768Z,11.68
2023-03-02T14:19:10.833Z,10.20
2023-03-02T14:22:20.390Z,9.98
2023-03-02T14:25:28.774Z,11.85
2023-03-02T14:28:44.800Z,11.65
2023-03-02T14:31:53.837Z,11.32
2023-03-02T14:35:08.775Z,9.43
2023-03-02T14:38:17.745Z,9.68
2023-03-02T14:41:28.282Z,9.70
2023-03-02T14:44:42.881Z,7.22
2023-03-02T14:47:57.820Z,9.10
2023-03-02T14:51:01.366Z,10.00
2023-03-02T14:54:22.772Z,13.10
2023-03-02T14:57:36.912Z,9.45
2023-03-02T15:00:49.771Z,11.70
2023-03-02T15:04:04.830Z,10.85
2023-03-02T15:07:16.850Z,11.27
2023-03-02T15:10:32.141Z,11.85
2023-03-02T15:13:46.799Z,9.52
2023-03-02T15:16:48.752Z,9.98
2023-03-02T15:20:04.818Z,14.13
2023-03-02T15:23:06.819Z,11.33
2023-03-02T15:26:21.879Z,11.88
2023-03-02T15:29:29.827Z,12.30
2023-03-02T15:32:38.534Z,12.37
2023-03-02T15:35:46.891Z,10.27
2023-03-02T15:38:55.545Z,14.63
2023-03-02T15:42:04.822Z,16.33
2023-03-02T15:45:14.542Z,11.35
2023-03-02T15:48:28.908Z,12.00
2023-03-02T15:51:37.397Z,9.20
2023-03-02T15:54:45.847Z,9.67
2023-03-02T15:57:54.518Z,10.90
2023-03-02T16:01:04.837Z,10.25
2023-03-02T16:04:13.597Z,13.48
2023-03-02T16:07:21.878Z,11.95
2023-03-02T16:10:44.432Z,14.27
2023-03-02T16:13:52.816Z,11.27
2023-03-02T16:17:14.965Z,14.65
2023-03-02T16:20:17.576Z,14.30
2023-03-02T16:23:32.840Z,16.40
2023-03-02T16:26:44.020Z,13.40
2023-03-02T16:29:52.685Z,15.40
2023-03-02T16:33:10.888Z,13.18
2023-03-02T16:36:13.988Z,14.10
2023-03-02T16:39:29.810Z,15.80
2023-03-02T16:42:44.866Z,12.60
2023-03-02T16:45:53.521Z,13.47
2023-03-02T16:49:02.861Z,21.45
2023-03-02T16:52:11.558Z,16.85
2023-03-02T16:55:26.837Z,15.63
2023-03-02T16:58:36.063Z,18.17
2023-03-02T17:01:44.902Z,15.13
2023-03-02T17:04:55.627Z,19.27
2023-03-02T17:08:03.865Z,18.60
2023-03-02T17:11:26.928Z,22.35
2023-03-02T17:14:28.802Z,25.40
2023-03-02T17:17:44.873Z,24.43
2023-03-02T17:21:01.929Z,31.92
2023-03-02T17:24:10.737Z,28.67
2023-03-02T17:27:24.968Z,21.50
2023-03-02T17:30:37.089Z,19.83
2023-03-02T17:33:51.843Z,24.77
2023-03-02T17:36:59.886Z,23.95
2023-03-02T17:40:18.904Z,28.10
2023-03-02T17:43:31.354Z,22.75
2023-03-02T17:46:49.963Z,24.97
2023-03-02T17:49:58.853Z,28.67
2023-03-02T17:53:09.062Z,24.17
2023-03-02T17:56:27.165Z,28.15
2023-03-02T17:59:29.089Z,25.27
2023-03-02T18:02:43.859Z,25.03
2023-03-02T18:05:52.451Z,24.93
2023-03-02T18:09:07.941Z,22.70
2023-03-02T18:12:22.892Z,25.85
2023-03-02T18:15:30.889Z,25.23
2023-03-02T18:18:39.941Z,29.10
2023-03-02T18:21:54.904Z,24.97
2023-03-02T18:24:57.127Z,24.63
2023-03-02T18:28:12.942Z,24.92
2023-03-02T18:31:28.989Z,26.98
2023-03-02T18:34:32.042Z,25.83
2023-03-02T18:37:47.029Z,26.83
2023-03-02T18:40:55.910Z,27.27
2023-03-02T18:44:04.631Z,31.20
2023-03-02T18:47:12.970Z,26.42
2023-03-02T18:50:30.041Z,27.53
2023-03-02T18:53:44.876Z,27.07
2023-03-02T18:56:53.720Z,25.50
2023-03-02T19:00:15.121Z,24.33
2023-03-02T19:03:19.991Z,27.75
2023-03-02T19:06:35.046Z,28.63
2023-03-02T19:09:50.201Z,30.07
2023-03-02T19:12:58.882Z,27.02
2023-03-02T19:16:14.027Z,26.87
2023-03-02T19:19:22.944Z,27.92
2023-03-02T19:22:41.042Z,27.43
2023-03-02T19:25:50.796Z,31.43
2023-03-02T19:29:05.914Z,27.35
2023-03-02T19:32:08.821Z,26.42
2023-03-02T19:35:24.003Z,26.08
2023-03-02T19:38:26.109Z,26.97
2023-03-02T19:41:41.925Z,25.40
2023-03-02T19:44:50.965Z,27.62
2023-03-02T19:48:00.930Z,28.85
2023-03-02T19:51:10.960Z,30.50
2023-03-02T19:54:20.773Z,26.07
2023-03-02T19:57:29.058Z,25.63
2023-03-02T20:00:38.031Z,30.02
2023-03-02T20:03:54.049Z,28.67
2023-03-02T20:07:05.971Z,33.92
2023-03-02T20:10:28.232Z,26.70
2023-03-02T20:13:36.986Z,28.53
2023-03-02T20:16:51.970Z,32.30
2023-03-02T20:19:59.921Z,27.50
2023-03-02T20:23:09.206Z,32.95
2023-03-02T20:26:17.974Z,26.43
2023-03-02T20:29:32.977Z,28.93
2023-03-02T20:32:35.053Z,34.85
2023-03-02T20:35:55.169Z,28.85
2023-03-02T20:39:13.019Z,28.02
2023-03-02T20:42:21.945Z,31.97
2023-03-02T20:45:37.978Z,30.73
2023-03-02T20:48:39.845Z,31.00
2023-03-02T20:51:57.969Z,25.73
2023-03-02T20:55:13.971Z,30.15
2023-03-02T20:58:16.000Z,26.00
2023-03-02T21:01:32.034Z,27.10
2023-03-02T21:04:41.086Z,32.85
2023-03-02T21:07:57.065Z,34.80
2023-03-02T21:11:10.249Z,29.60
2023-03-02T21:14:25.006Z,27.93
2023-03-02T21:17:40.035Z,26.77
2023-03-02T21:20:42.138Z,27.45
2023-03-02T21:23:56.982Z,29.80
2023-03-02T21:26:59.004Z,34.47
2023-03-02T21:30:20.964Z,26.83
2023-03-02T21:33:29.973Z,28.40
2023-03-02T21:36:39.009Z,29.27
2023-03-02T21:39:53.948Z,28.65
2023-03-02T21:43:05.570Z,29.83
2023-03-02T21:46:14.027Z,29.13
2023-03-02T21:49:29.962Z,27.80
2023-03-02T21:52:31.807Z,28.20
2023-03-02T21:55:46.985Z,26.55
2023-03-02T21:58:50.240Z,29.55
2023-03-02T22:02:05.079Z,27.60
2023-03-02T22:05:13.769Z,27.80
2023-03-02T22:08:25.012Z,31.92
2023-03-02T22:11:42.826Z,25.92
2023-03-02T22:15:00.039Z,25.30
2023-03-02T22:18:19.988Z,24.03
2023-03-02T22:21:29.742Z,26.43
2023-03-02T22:24:46.001Z,26.73
2023-03-02T22:27:47.942Z,26.23
2023-03-02T22:31:06.975Z,27.37
2023-03-02T22:34:14.811Z,28.80
2023-03-02T22:37:34.011Z,27.77
2023-03-02T22:40:43.013Z,33.30
2023-03-02T22:43:51.726Z,25.85
2023-03-02T22:47:03.065Z,22.87
2023-03-02T22:50:28.964Z,29.27
2023-03-02T22:53:39.043Z,23.07
2023-03-02T22:56:57.101Z,26.17
2023-03-02T23:00:38.753Z,24.23
2023-03-02T23:03:58.986Z,26.98
2023-03-02T23:07:27.146Z,27.50
2023-03-02T23:10:51.086Z,32.27
2023-03-02T23:14:00.045Z,27.37
2023-03-02T23:17:21.474Z,27.35
2023-03-02T23:20:30.042Z,27.85
2023-03-02T23:23:45.009Z,29.27
2023-03-02T23:26:53.717Z,31.53
2023-03-02T23:30:02.107Z,30.52
2023-03-02T23:33:10.792Z,28.70
2023-03-02T23:36:20.029Z,26.90
2023-03-02T23:39:28.768Z,23.70
2023-03-02T23:42:36.990Z,27.67
2023-03-02T23:45:45.676Z,25.25
2023-03-02T23:48:54.019Z,26.08
2023-03-02T23:52:09.066Z,27.65
2023-03-02T23:55:19.307Z,27.20
2023-03-02T23:58:35.087Z,34.13
